Time;durP1;ratioP1;P1;durP2;ratioP2;P2;SDS_P1;SDS_P2;PMS_P1;PMS_P2;Temp;Humidity;BMP_temperature;BMP_pressure;BME280_temperature;BME280_humidity;BME280_pressure;Samples;Min_cycle;Max_cycle;Signal;HPM_P1;HPM_P2
2022/07/05 00:00:16;;;;;;;3.90;2.60;;;;;;;14.11;100.00;101235.72;695004;28;1250;-43
2022/07/05 00:00:36;;;;;;;5.22;2.90;;;;;;;14.09;100.00;101236.63;695761;28;1489;-46
2022/07/05 00:00:57;;;;;;;5.07;2.80;;;;;;;14.12;100.00;101241.84;696018;28;1333;-46
2022/07/05 00:01:18;;;;;;;5.17;2.80;;;;;;;14.11;100.00;101240.13;695904;28;1150;-47
2022/07/05 00:01:41;;;;;;;6.35;3.05;;;;;;;14.14;100.00;101246.19;694962;28;1334;-44
2022/07/05 00:02:01;;;;;;;5.03;2.90;;;;;;;14.18;100.00;101236.53;694758;28;2262;-45
2022/07/05 00:02:22;;;;;;;3.95;2.70;;;;;;;14.20;100.00;101247.03;692781;28;4069;-45
2022/07/05 00:02:43;;;;;;;4.30;2.70;;;;;;;14.19;100.00;101246.16;692045;28;5776;-45
2022/07/05 00:03:03;;;;;;;4.80;2.80;;;;;;;14.17;100.00;101242.66;692855;28;1225;-45
2022/07/05 00:03:24;;;;;;;5.10;2.95;;;;;;;14.08;100.00;101243.66;692356;28;1312;-44
2022/07/05 00:03:45;;;;;;;5.25;3.20;;;;;;;14.02;100.00;101245.47;695648;28;1377;-44
2022/07/05 00:04:05;;;;;;;4.50;3.07;;;;;;;14.01;100.00;101243.72;694724;28;1339;-45
2022/07/05 00:04:28;;;;;;;4.50;2.80;;;;;;;14.04;100.00;101243.66;695313;28;1269;-45
2022/07/05 00:04:50;;;;;;;5.10;3.00;;;;;;;14.12;100.00;101245.34;695270;28;1553;-44
2022/07/05 00:05:10;;;;;;;4.38;2.58;;;;;;;14.14;100.00;101247.97;692354;28;1569;-44
2022/07/05 00:05:31;;;;;;;4.30;2.70;;;;;;;14.17;100.00;101241.81;692662;28;1303;-44
2022/07/05 00:05:51;;;;;;;4.32;2.60;;;;;;;14.24;99.27;101246.97;692010;28;4438;-44
2022/07/05 00:06:11;;;;;;;3.93;2.60;;;;;;;14.27;100.00;101244.34;691338;28;1537;-44
2022/07/05 00:06:32;;;;;;;5.00;2.67;;;;;;;14.27;100.00;101243.44;691941;28;1358;-44
2022/07/05 00:07:31;;;;;;;4.22;2.72;;;;;;;14.30;100.00;101246.03;694473;28;1206;-43
2022/07/05 00:07:52;;;;;;;5.00;2.78;;;;;;;14.28;100.00;101250.44;695130;28;1614;-44
2022/07/05 00:08:13;;;;;;;4.40;2.60;;;;;;;14.27;100.00;101244.34;694447;28;1008;-45
2022/07/05 00:08:33;;;;;;;4.10;2.60;;;;;;;14.28;100.00;101247.81;691260;28;4886;-44
2022/07/05 00:08:53;;;;;;;4.00;2.63;;;;;;;14.26;100.00;101250.47;691595;28;1344;-43
2022/07/05 00:09:14;;;;;;;4.70;2.80;;;;;;;14.24;100.00;101244.34;692656;28;1409;-43
2022/07/05 00:09:34;;;;;;;3.93;2.60;;;;;;;14.25;100.00;101253.97;690004;28;1187;-44
2022/07/05 00:09:57;;;;;;;4.03;2.73;;;;;;;14.26;100.00;101244.31;688701;28;1651;-44
2022/07/05 00:10:17;;;;;;;4.57;2.70;;;;;;;14.28;100.00;101247.81;689405;28;1324;-44
2022/07/05 00:10:38;;;;;;;4.95;2.70;;;;;;;14.29;100.00;101245.16;692287;28;1483;-43
2022/07/05 00:10:59;;;;;;;4.93;2.85;;;;;;;14.27;99.99;101252.22;692492;28;1615;-43
2022/07/05 00:11:19;;;;;;;5.43;2.80;;;;;;;14.30;100.00;101246.03;687412;28;1618;-43
2022/07/05 00:11:40;;;;;;;6.05;2.85;;;;;;;14.35;99.18;101246.84;691158;28;4664;-44
2022/07/05 00:12:00;;;;;;;5.23;2.90;;;;;;;14.37;99.39;101252.09;690089;28;1743;-44
2022/07/05 00:12:23;;;;;;;4.28;2.83;;;;;;;14.42;98.35;101250.28;690131;28;1710;-45
2022/07/05 00:12:44;;;;;;;4.80;2.80;;;;;;;14.44;97.88;101252.03;690160;28;963;-43
2022/07/05 00:13:05;;;;;;;5.77;3.03;;;;;;;14.47;97.97;101251.97;689835;28;2016;-46
2022/07/05 00:13:26;;;;;;;4.75;3.35;;;;;;;14.47;98.51;101251.13;694520;28;4893;-44
2022/07/05 00:13:46;;;;;;;5.13;2.97;;;;;;;14.47;99.15;101253.75;694611;28;1910;-45
2022/07/05 00:14:06;;;;;;;5.00;3.20;;;;;;;14.48;98.87;101250.22;692777;28;1236;-43
2022/07/05 00:14:27;;;;;;;4.47;2.90;;;;;;;14.47;99.35;101256.38;692226;28;1364;-44
2022/07/05 00:14:48;;;;;;;4.55;3.25;;;;;;;14.45;100.00;101256.41;691162;28;4218;-44
2022/07/05 00:15:09;;;;;;;6.50;3.10;;;;;;;14.41;100.00;101254.69;691896;28;1412;-44
2022/07/05 00:15:29;;;;;;;7.00;3.13;;;;;;;14.40;100.00;101254.69;689075;28;1562;-44
2022/07/05 00:15:52;;;;;;;6.50;3.20;;;;;;;14.40;99.93;101252.06;689869;28;1423;-43
2022/07/05 00:16:12;;;;;;;5.13;2.90;;;;;;;14.46;97.94;101249.38;692113;28;1163;-44
2022/07/05 00:16:32;;;;;;;6.37;2.70;;;;;;;14.49;97.93;101257.22;691987;28;1317;-46
2022/07/05 00:16:53;;;;;;;6.38;2.70;;;;;;;14.53;97.69;101253.66;692269;28;1345;-44
2022/07/05 00:17:14;;;;;;;5.47;2.87;;;;;;;14.51;99.19;101247.56;692280;28;1134;-44
2022/07/05 00:17:34;;;;;;;5.60;2.90;;;;;;;14.47;100.00;101253.75;692818;28;4471;-43
2022/07/05 00:17:55;;;;;;;5.70;2.90;;;;;;;14.42;100.00;101255.56;694468;28;1327;-44
2022/07/05 00:18:15;;;;;;;6.80;3.13;;;;;;;14.39;100.00;101247.72;692169;28;1135;-43
2022/07/05 00:18:35;;;;;;;5.45;2.90;;;;;;;14.37;100.00;101252.09;692435;28;1968;-44
2022/07/05 00:18:56;;;;;;;4.50;2.87;;;;;;;14.35;100.00;101253.88;692719;28;814;-45
2022/07/05 00:19:16;;;;;;;4.70;2.70;;;;;;;14.33;100.00;101251.28;691586;28;1412;-43
2022/07/05 00:19:37;;;;;;;4.53;2.80;;;;;;;14.31;100.00;101253.91;692509;28;1438;-45
2022/07/05 00:19:58;;;;;;;5.15;2.90;;;;;;;14.30;100.00;101249.56;691775;28;1363;-43
2022/07/05 00:20:18;;;;;;;4.93;2.87;;;;;;;14.28;100.00;101247.81;693835;28;1493;-44
2022/07/05 00:20:38;;;;;;;5.40;3.03;;;;;;;14.22;100.00;101247.88;693459;28;4980;-44
2022/07/05 00:20:59;;;;;;;5.73;3.20;;;;;;;14.24;100.00;101251.38;694861;28;1364;-45
2022/07/05 00:21:19;;;;;;;4.97;2.90;;;;;;;14.29;100.00;101242.53;693844;28;1165;-44
2022/07/05 00:21:39;;;;;;;4.77;2.80;;;;;;;14.30;100.00;101259.19;691213;28;1885;-44
2022/07/05 00:22:00;;;;;;;4.87;3.03;;;;;;;14.33;100.00;101248.66;692259;28;1658;-46
2022/07/05 00:22:20;;;;;;;5.30;2.70;;;;;;;14.38;99.39;101252.06;692112;28;1215;-45
2022/07/05 00:22:42;;;;;;;4.73;2.53;;;;;;;14.44;97.73;101253.75;688760;28;1370;-43
2022/07/05 00:23:02;;;;;;;5.30;2.60;;;;;;;14.45;98.85;101255.50;689010;28;1701;-43
2022/07/05 00:23:22;;;;;;;5.20;2.60;;;;;;;14.45;100.00;101250.25;689286;28;1432;-43
2022/07/05 00:23:44;;;;;;;4.78;2.70;;;;;;;14.41;100.00;101248.56;688059;28;4453;-44
2022/07/05 00:24:05;;;;;;;5.00;2.72;;;;;;;14.38;100.00;101252.06;688001;28;1383;-43
2022/07/05 00:24:26;;;;;;;5.00;3.00;;;;;;;14.43;99.68;101252.03;692234;28;1382;-44
2022/07/05 00:24:46;;;;;;;5.85;3.08;;;;;;;14.39;100.00;101252.97;691471;28;1375;-46
2022/07/05 00:25:07;;;;;;;5.50;3.00;;;;;;;14.35;100.00;101248.63;691881;28;1740;-43
2022/07/05 00:25:27;;;;;;;4.33;2.83;;;;;;;14.30;100.00;101252.19;692054;28;1843;-43
2022/07/05 00:25:48;;;;;;;4.30;2.80;;;;;;;14.26;100.00;101245.22;691197;28;1685;-43
2022/07/05 00:26:08;;;;;;;4.53;2.70;;;;;;;14.25;100.00;101253.97;688406;28;1489;-44
2022/07/05 00:26:29;;;;;;;5.35;2.80;;;;;;;14.25;100.00;101247.88;688884;28;1191;-43
2022/07/05 00:26:49;;;;;;;4.83;2.90;;;;;;;14.22;100.00;101248.75;690670;28;4274;-45
2022/07/05 00:27:09;;;;;;;5.80;2.90;;;;;;;14.26;100.00;101254.84;691162;28;1727;-44
2022/07/05 00:27:30;;;;;;;5.03;2.85;;;;;;;14.30;100.00;101252.19;691487;28;2065;-44
2022/07/05 00:27:53;;;;;;;5.67;3.10;;;;;;;14.27;100.00;101249.59;691139;28;1400;-45
2022/07/05 00:28:15;;;;;;;4.60;3.13;;;;;;;14.21;100.00;101252.28;688081;28;2303;-44
2022/07/05 00:28:35;;;;;;;4.72;3.35;;;;;;;14.18;100.00;101252.31;688102;28;1298;-43
2022/07/05 00:28:56;;;;;;;5.10;3.20;;;;;;;14.17;100.00;101253.19;686590;28;1721;-43
2022/07/05 00:29:16;;;;;;;5.23;3.07;;;;;;;14.18;100.00;101256.69;685708;28;1472;-45
2022/07/05 00:29:37;;;;;;;5.38;3.17;;;;;;;14.15;100.00;101257.59;686629;28;4439;-43
2022/07/05 00:29:57;;;;;;;4.60;3.10;;;;;;;14.15;100.00;101252.34;688800;28;1305;-44
2022/07/05 00:30:17;;;;;;;5.30;3.10;;;;;;;14.22;99.23;101248.75;691291;28;1208;-44
2022/07/05 00:30:38;;;;;;;4.63;2.80;;;;;;;14.25;100.00;101251.34;691267;28;1290;-46
2022/07/05 00:30:58;;;;;;;4.70;3.10;;;;;;;14.19;100.00;101254.06;694033;28;1569;-45
2022/07/05 00:31:19;;;;;;;4.87;3.23;;;;;;;14.16;100.00;101259.31;694320;28;1375;-44
2022/07/05 00:31:39;;;;;;;5.68;3.13;;;;;;;14.17;100.00;101250.56;693959;28;1148;-44
2022/07/05 00:32:00;;;;;;;4.82;2.97;;;;;;;14.15;100.00;101249.72;690774;28;1453;-45
2022/07/05 00:32:20;;;;;;;4.53;2.80;;;;;;;14.12;100.00;101258.50;688071;28;1264;-45
2022/07/05 00:32:41;;;;;;;4.22;2.88;;;;;;;14.14;100.00;101256.72;687818;28;4272;-45
2022/07/05 00:33:01;;;;;;;4.90;2.97;;;;;;;14.15;100.00;101257.59;688524;28;1393;-46
2022/07/05 00:33:22;;;;;;;5.27;2.87;;;;;;;14.12;100.00;101253.25;687629;28;1297;-44
2022/07/05 00:33:42;;;;;;;5.03;3.00;;;;;;;14.09;100.00;101261.13;688200;28;1257;-45
2022/07/05 00:34:03;;;;;;;4.67;3.00;;;;;;;14.05;100.00;101255.94;685309;28;1914;-45
2022/07/05 00:34:24;;;;;;;5.32;3.10;;;;;;;14.01;100.00;101255.13;685765;28;1401;-44
2022/07/05 00:34:44;;;;;;;5.32;3.03;;;;;;;14.00;100.00;101257.72;685264;28;1712;-44
2022/07/05 00:35:06;;;;;;;5.03;3.20;;;;;;;13.98;100.00;101254.25;686720;28;1790;-44
2022/07/05 00:35:26;;;;;;;4.30;3.05;;;;;;;13.99;100.00;101258.63;687450;28;1053;-43
2022/07/05 00:35:46;;;;;;;4.35;2.92;;;;;;;14.00;100.00;101252.47;686808;28;4283;-44
2022/07/05 00:36:07;;;;;;;4.40;2.70;;;;;;;14.01;100.00;101256.84;687581;28;1472;-45
2022/07/05 00:36:27;;;;;;;4.25;2.70;;;;;;;13.96;100.00;101255.13;688452;28;1353;-45
2022/07/05 00:36:48;;;;;;;5.90;3.00;;;;;;;13.99;100.00;101254.25;688689;28;1425;-44
2022/07/05 00:37:08;;;;;;;5.88;3.10;;;;;;;14.00;100.00;101257.72;688111;28;1119;-44
2022/07/05 00:37:29;;;;;;;4.97;2.87;;;;;;;14.04;100.00;101254.19;686958;28;1195;-44
2022/07/05 00:37:49;;;;;;;4.22;2.60;;;;;;;14.09;100.00;101255.03;688446;28;1363;-43
2022/07/05 00:38:10;;;;;;;4.37;2.63;;;;;;;14.10;100.00;101254.16;687484;28;1653;-44
2022/07/05 00:38:30;;;;;;;5.22;2.85;;;;;;;14.11;100.00;101255.91;691398;28;1130;-46
2022/07/05 00:38:51;;;;;;;6.97;2.90;;;;;;;14.13;100.00;101254.09;693569;28;4350;-44
2022/07/05 00:39:11;;;;;;;6.72;2.78;;;;;;;14.18;99.13;101254.94;690174;28;1370;-43
2022/07/05 00:39:32;;;;;;;7.70;2.63;;;;;;;14.22;99.07;101261.03;689916;28;1517;-44
2022/07/05 00:39:52;;;;;;;5.82;2.90;;;;;;;14.22;100.00;101256.66;690180;28;1204;-44
2022/07/05 00:40:13;;;;;;;5.03;3.10;;;;;;;14.16;100.00;101255.84;686955;28;1548;-43
2022/07/05 00:40:33;;;;;;;5.30;2.70;;;;;;;14.09;100.00;101252.38;685434;28;1575;-43
2022/07/05 00:40:54;;;;;;;5.67;2.90;;;;;;;14.06;100.00;101253.28;684837;28;1243;-45
2022/07/05 00:41:14;;;;;;;4.83;2.93;;;;;;;14.04;100.00;101254.19;682212;28;1390;-45
2022/07/05 00:41:35;;;;;;;4.03;2.77;;;;;;;14.03;100.00;101257.72;681892;28;4349;-43
2022/07/05 00:41:55;;;;;;;5.45;3.00;;;;;;;14.00;100.00;101252.47;682091;28;1272;-44
2022/07/05 00:42:16;;;;;;;5.50;2.90;;;;;;;13.96;100.00;101256.91;682477;28;1349;-44
2022/07/05 00:42:36;;;;;;;5.03;3.03;;;;;;;13.94;100.00;101253.41;682458;28;1397;-45
2022/07/05 00:42:57;;;;;;;5.07;3.33;;;;;;;13.92;100.00;101253.41;683012;28;1433;-43
2022/07/05 00:43:17;;;;;;;4.80;3.00;;;;;;;13.92;100.00;101249.94;687492;28;1333;-44
2022/07/05 00:43:52;;;;;;;5.45;2.90;;;;;;;13.90;100.00;101254.31;688313;28;1373;-44
2022/07/05 00:44:14;;;;;;;5.05;3.03;;;;;;;13.83;100.00;101250.91;686489;28;1215;-43
2022/07/05 00:44:37;;;;;;;5.45;2.92;;;;;;;13.79;100.00;101254.44;689399;28;4327;-44
2022/07/05 00:44:57;;;;;;;5.25;3.10;;;;;;;13.77;100.00;101258.81;690591;28;1465;-43
2022/07/05 00:45:18;;;;;;;5.47;3.07;;;;;;;13.74;100.00;101251.84;690064;28;1334;-44
2022/07/05 00:45:38;;;;;;;5.10;3.10;;;;;;;13.70;100.00;101259.75;691176;28;1383;-43
2022/07/05 00:45:59;;;;;;;5.28;2.90;;;;;;;13.72;100.00;101253.63;690175;28;1612;-44
2022/07/05 00:46:19;;;;;;;4.57;2.80;;;;;;;13.77;100.00;101251.78;690546;28;1515;-43
2022/07/05 00:46:41;;;;;;;4.85;3.17;;;;;;;13.75;100.00;101258.84;691062;28;1317;-43
2022/07/05 00:47:06;;;;;;;4.45;3.15;;;;;;;13.80;100.00;101253.53;688380;28;1191;-44
2022/07/05 00:47:27;;;;;;;5.55;3.30;;;;;;;13.88;100.00;101249.06;688318;28;1168;-44
2022/07/05 00:47:47;;;;;;;4.20;2.80;;;;;;;13.90;100.00;101242.06;687775;28;4277;-44
2022/07/05 00:48:08;;;;;;;5.07;2.90;;;;;;;13.95;100.00;101250.75;687304;28;1326;-46
2022/07/05 00:48:28;;;;;;;4.40;2.75;;;;;;;14.05;100.00;101248.06;684430;28;1238;-43
2022/07/05 00:48:49;;;;;;;5.60;3.20;;;;;;;14.06;100.00;101248.03;683199;28;1563;-44
2022/07/05 00:49:09;;;;;;;5.28;3.03;;;;;;;14.08;99.75;101251.53;682622;28;1219;-45
2022/07/05 00:49:31;;;;;;;4.60;2.78;;;;;;;14.08;99.51;101251.53;682949;28;1216;-44
2022/07/05 00:49:51;;;;;;;4.53;2.80;;;;;;;14.08;99.75;101250.63;682861;28;1452;-43
2022/07/05 00:50:12;;;;;;;4.50;3.00;;;;;;;14.12;99.44;101252.34;683468;28;1207;-43
2022/07/05 00:50:33;;;;;;;5.15;2.90;;;;;;;14.08;100.00;101250.63;682318;28;1721;-43
2022/07/05 00:50:54;;;;;;;5.45;3.00;;;;;;;14.03;100.00;101257.72;682327;28;6159;-45
2022/07/05 00:51:14;;;;;;;6.47;3.00;;;;;;;13.93;100.00;101255.16;678954;28;1287;-46
2022/07/05 00:51:37;;;;;;;5.57;3.05;;;;;;;13.88;100.00;101249.06;680037;29;1304;-43
2022/07/05 00:52:02;;;;;;;4.63;2.92;;;;;;;13.85;100.00;101257.00;681521;28;1406;-43
2022/07/05 00:52:23;;;;;;;6.40;3.10;;;;;;;13.83;100.00;101261.41;684673;28;1332;-43
2022/07/05 00:52:43;;;;;;;5.00;2.87;;;;;;;13.80;100.00;101261.41;683411;28;1215;-43
2022/07/05 00:53:04;;;;;;;4.85;2.70;;;;;;;13.79;100.00;101257.06;686022;28;1326;-43
2022/07/05 00:53:24;;;;;;;5.17;3.00;;;;;;;13.84;100.00;101263.13;688051;28;1235;-44
2022/07/05 00:53:45;;;;;;;4.78;3.10;;;;;;;13.83;100.00;101260.53;687410;28;4431;-43
2022/07/05 00:54:07;;;;;;;4.70;3.20;;;;;;;13.79;100.00;101262.31;687724;28;1247;-44
2022/07/05 00:54:29;;;;;;;4.70;3.15;;;;;;;13.73;100.00;101262.34;690806;28;1202;-44
2022/07/05 00:54:49;;;;;;;4.95;3.13;;;;;;;13.77;100.00;101258.81;692719;28;1200;-42
2022/07/05 00:55:10;;;;;;;7.77;2.90;;;;;;;13.78;100.00;101260.56;692673;28;1700;-43
2022/07/05 00:55:30;;;;;;;5.53;2.67;;;;;;;13.77;100.00;101262.31;693845;28;1653;-43
2022/07/05 00:55:51;;;;;;;4.00;2.80;;;;;;;13.76;100.00;101262.31;690453;28;1505;-43
2022/07/05 00:56:13;;;;;;;5.00;3.00;;;;;;;13.88;100.00;101256.09;684344;28;1651;-43
2022/07/05 00:56:33;;;;;;;4.80;2.70;;;;;;;13.96;99.69;101256.91;684481;28;4392;-43
2022/07/05 00:56:54;;;;;;;3.80;2.50;;;;;;;14.04;99.45;101259.44;685416;28;1421;-43
2022/07/05 00:57:15;;;;;;;4.25;2.80;;;;;;;14.07;100.00;101262.94;682252;28;1311;-43
2022/07/05 00:57:36;;;;;;;4.80;2.83;;;;;;;14.07;100.00;101260.28;684643;28;1385;-44
2022/07/05 00:57:56;;;;;;;4.65;2.70;;;;;;;14.12;100.00;101257.63;682860;28;1355;-45
2022/07/05 00:58:17;;;;;;;5.60;3.00;;;;;;;14.08;100.00;101262.06;685044;28;1346;-46
2022/07/05 00:58:37;;;;;;;6.93;3.13;;;;;;;14.08;99.90;101263.78;684719;28;3393;-43
2022/07/05 00:58:57;;;;;;;6.57;2.90;;;;;;;14.07;100.00;101260.28;687042;28;1413;-44
2022/07/05 00:59:18;;;;;;;6.03;2.90;;;;;;;14.01;100.00;101260.38;687501;28;1464;-43
2022/07/05 00:59:38;;;;;;;4.67;2.80;;;;;;;13.93;100.00;101257.81;687041;28;4321;-43
2022/07/05 00:59:59;;;;;;;4.10;2.70;;;;;;;13.87;100.00;101262.22;684653;28;1523;-43
2022/07/05 01:00:19;;;;;;;6.53;2.80;;;;;;;13.84;100.00;101265.75;684703;28;1600;-43
2022/07/05 01:00:40;;;;;;;6.88;2.72;;;;;;;13.81;100.00;101259.69;684779;28;1306;-43
2022/07/05 01:01:04;;;;;;;6.03;2.73;;;;;;;13.79;100.00;101264.94;687832;28;1535;-44
2022/07/05 01:01:27;;;;;;;4.90;2.80;;;;;;;13.86;100.00;101263.13;689851;28;1246;-45
2022/07/05 01:01:48;;;;;;;4.53;2.90;;;;;;;13.92;100.00;101260.44;691275;28;1512;-43
2022/07/05 01:02:08;;;;;;;4.03;2.80;;;;;;;13.90;100.00;101252.59;690978;28;1384;-43
2022/07/05 01:02:28;;;;;;;4.70;2.90;;;;;;;13.90;100.00;101257.84;687902;28;1279;-43
2022/07/05 01:02:49;;;;;;;4.33;3.00;;;;;;;13.93;100.00;101257.81;686674;28;4370;-46
2022/07/05 01:03:09;;;;;;;4.32;2.85;;;;;;;14.01;100.00;101254.22;684584;28;1303;-43
2022/07/05 01:03:30;;;;;;;4.70;2.87;;;;;;;14.02;100.00;101261.22;684408;28;1334;-43
2022/07/05 01:03:51;;;;;;;4.75;2.70;;;;;;;14.05;98.17;101258.56;685688;28;1271;-42
2022/07/05 01:04:12;;;;;;;5.10;2.70;;;;;;;14.04;100.00;101262.06;688009;28;1127;-45
2022/07/05 01:04:32;;;;;;;5.25;2.97;;;;;;;14.00;100.00;101257.72;691145;28;1468;-44
2022/07/05 01:04:53;;;;;;;5.97;2.93;;;;;;;14.03;99.90;101257.72;690580;28;1530;-42
2022/07/05 01:05:13;;;;;;;5.10;2.80;;;;;;;14.07;99.70;101259.44;687210;28;1670;-43
2022/07/05 01:05:33;;;;;;;4.60;2.83;;;;;;;14.01;100.00;101256.84;687240;28;4482;-42
2022/07/05 01:05:54;;;;;;;4.72;2.80;;;;;;;13.96;100.00;101257.75;690677;28;1186;-43
2022/07/05 01:06:15;;;;;;;4.45;2.95;;;;;;;13.92;100.00;101261.31;689836;28;1056;-44
2022/07/05 01:06:35;;;;;;;4.40;2.80;;;;;;;13.89;100.00;101257.84;688643;28;1446;-43
2022/07/05 01:06:57;;;;;;;5.40;2.90;;;;;;;13.84;100.00;101263.13;689733;28;1203;-42
2022/07/05 01:07:20;;;;;;;5.78;3.33;;;;;;;13.77;100.00;101262.31;689451;28;2017;-45
2022/07/05 01:07:40;;;;;;;5.63;3.00;;;;;;;13.76;100.00;101262.31;685730;28;1128;-43
2022/07/05 01:08:01;;;;;;;4.35;2.83;;;;;;;13.72;100.00;101260.59;685150;28;1200;-43
2022/07/05 01:08:24;;;;;;;4.82;3.05;;;;;;;13.73;100.00;101260.59;685092;28;1211;-44
2022/07/05 01:08:46;;;;;;;5.80;3.30;;;;;;;13.71;100.00;101261.50;687135;28;4445;-43
2022/07/05 01:09:08;;;;;;;4.97;3.00;;;;;;;13.70;100.00;101260.63;688595;28;1291;-45
2022/07/05 01:09:28;;;;;;;5.47;3.17;;;;;;;13.64;100.00;101252.81;690130;28;1206;-44
2022/07/05 01:09:49;;;;;;;6.30;3.00;;;;;;;13.63;100.00;101259.78;692578;28;1373;-42
2022/07/05 01:10:10;;;;;;;5.03;3.00;;;;;;;13.68;100.00;101256.25;693370;28;1294;-47
2022/07/05 01:10:31;;;;;;;4.78;2.90;;;;;;;13.72;100.00;101263.22;693347;28;1483;-45
2022/07/05 01:10:52;;;;;;;4.50;3.05;;;;;;;13.69;100.00;101268.53;690294;28;1440;-43
2022/07/05 01:11:14;;;;;;;6.00;3.20;;;;;;;13.67;100.00;101260.66;689641;28;1444;-42
2022/07/05 01:11:34;;;;;;;4.88;2.80;;;;;;;13.68;100.00;101256.25;686830;28;4395;-43
2022/07/05 01:11:55;;;;;;;5.17;2.70;;;;;;;13.68;100.00;101259.78;687787;28;1356;-43
2022/07/05 01:12:17;;;;;;;4.93;3.00;;;;;;;13.68;100.00;101262.41;688763;28;1342;-43
2022/07/05 01:12:39;;;;;;;5.47;3.00;;;;;;;13.76;100.00;101257.97;687567;28;1333;-43
2022/07/05 01:12:59;;;;;;;4.63;2.90;;;;;;;13.75;100.00;101257.97;689095;28;1152;-43
2022/07/05 01:13:20;;;;;;;4.30;2.90;;;;;;;13.70;100.00;101258.00;687489;28;1509;-43
2022/07/05 01:13:41;;;;;;;4.85;3.05;;;;;;;13.66;100.00;101256.28;689482;28;5077;-43
2022/07/05 01:14:02;;;;;;;4.90;3.30;;;;;;;13.65;100.00;101262.41;690876;28;1906;-43
2022/07/05 01:14:23;;;;;;;5.65;3.20;;;;;;;13.70;100.00;101263.25;690950;28;1354;-43
2022/07/05 01:14:44;;;;;;;5.32;3.10;;;;;;;13.76;100.00;101255.34;689838;28;4359;-43
2022/07/05 01:15:06;;;;;;;4.78;3.13;;;;;;;13.81;100.00;101257.91;687291;28;1210;-45
2022/07/05 01:15:27;;;;;;;3.90;2.70;;;;;;;13.77;100.00;101262.31;690107;28;1269;-45
2022/07/05 01:15:48;;;;;;;4.43;3.10;;;;;;;13.72;100.00;101253.63;687693;28;1511;-45
2022/07/05 01:16:09;;;;;;;5.43;3.10;;;;;;;13.70;100.00;101254.50;687416;28;1393;-43
2022/07/05 01:16:29;;;;;;;4.85;3.10;;;;;;;13.68;100.00;101261.50;684603;28;1330;-44
2022/07/05 01:16:51;;;;;;;3.78;2.90;;;;;;;13.68;100.00;101251.91;686196;28;1315;-46
2022/07/05 01:17:12;;;;;;;4.03;3.05;;;;;;;13.70;100.00;101260.63;685149;28;3168;-43
2022/07/05 01:17:34;;;;;;;4.70;3.10;;;;;;;13.61;100.00;101258.94;684852;28;1517;-43
2022/07/05 01:17:57;;;;;;;4.47;2.95;;;;;;;13.59;100.00;101262.47;686823;28;4890;-43
2022/07/05 01:18:20;;;;;;;5.07;3.22;;;;;;;13.56;100.00;101260.72;686951;28;1561;-44
2022/07/05 01:18:42;;;;;;;5.80;3.50;;;;;;;13.55;100.00;101258.13;689194;28;1244;-44
2022/07/05 01:19:06;;;;;;;5.13;3.20;;;;;;;13.51;100.00;101259.88;688553;28;1413;-46
2022/07/05 01:19:26;;;;;;;4.38;3.05;;;;;;;13.48;100.00;101265.16;689011;28;1997;-43
2022/07/05 01:19:47;;;;;;;6.00;3.20;;;;;;;13.46;100.00;101266.94;689870;28;1218;-45
2022/07/05 01:20:08;;;;;;;5.17;3.23;;;;;;;13.44;100.00;101258.19;690424;28;1286;-44
2022/07/05 01:20:28;;;;;;;4.68;3.28;;;;;;;13.45;100.00;101263.44;690420;28;1269;-44
2022/07/05 01:20:49;;;;;;;4.70;3.20;;;;;;;13.42;100.00;101265.22;687362;28;4472;-44
2022/07/05 01:21:13;;;;;;;5.45;3.03;;;;;;;13.40;100.00;101266.97;689426;28;1464;-44
2022/07/05 01:21:38;;;;;;;4.78;3.10;;;;;;;13.39;100.00;101265.25;690737;28;1757;-44
2022/07/05 01:22:07;;;;;;;5.38;3.28;;;;;;;13.36;100.00;101270.50;687353;28;1439;-46
2022/07/05 01:22:27;;;;;;;4.68;3.67;;;;;;;13.33;100.00;101268.72;688432;28;1274;-43
2022/07/05 01:22:55;;;;;;;5.45;3.58;;;;;;;13.35;100.00;101269.66;685236;28;1365;-44
2022/07/05 01:23:17;;;;;;;4.97;3.00;;;;;;;13.36;100.00;101270.50;687636;28;1331;-43
2022/07/05 01:23:38;;;;;;;5.10;3.00;;;;;;;13.38;100.00;101274.00;685274;28;4547;-44
2022/07/05 01:23:58;;;;;;;6.30;3.10;;;;;;;13.36;100.00;101270.50;683894;28;1636;-44
2022/07/05 01:24:20;;;;;;;5.95;3.30;;;;;;;13.37;100.00;101272.25;685401;28;1407;-44
2022/07/05 01:24:41;;;;;;;4.90;3.30;;;;;;;13.41;100.00;101268.72;685135;28;1239;-44
2022/07/05 01:25:01;;;;;;;4.75;3.10;;;;;;;13.44;100.00;101272.22;686516;28;1215;-45
2022/07/05 01:25:25;;;;;;;4.70;3.10;;;;;;;13.48;100.00;101264.31;685840;28;1241;-45
2022/07/05 01:25:49;;;;;;;5.82;3.17;;;;;;;13.56;100.00;101268.63;687746;28;1278;-44
2022/07/05 01:26:09;;;;;;;4.55;3.10;;;;;;;13.58;100.00;101266.88;689535;28;1288;-43
2022/07/05 01:26:30;;;;;;;6.33;3.40;;;;;;;13.56;100.00;101267.75;688348;28;1369;-44
2022/07/05 01:26:51;;;;;;;6.75;3.42;;;;;;;13.50;100.00;101273.94;690357;28;4492;-44
2022/07/05 01:27:12;;;;;;;4.68;3.30;;;;;;;13.44;100.00;101266.97;687352;28;1516;-43
2022/07/05 01:27:32;;;;;;;5.22;3.17;;;;;;;13.40;100.00;101269.59;687153;28;1583;-43
2022/07/05 01:27:54;;;;;;;5.33;3.20;;;;;;;13.37;100.00;101264.38;686328;28;1500;-44
2022/07/05 01:28:15;;;;;;;5.45;3.30;;;;;;;13.33;100.00;101273.13;686669;28;1310;-44
2022/07/05 01:28:36;;;;;;;5.60;3.28;;;;;;;13.25;100.00;101267.91;687741;28;1167;-43
2022/07/05 01:28:56;;;;;;;4.88;3.03;;;;;;;13.20;100.00;101267.94;687813;28;1344;-44
2022/07/05 01:29:17;;;;;;;4.90;2.90;;;;;;;13.19;100.00;101274.06;690078;28;1300;-42
2022/07/05 01:29:38;;;;;;;5.00;3.13;;;;;;;13.16;100.00;101274.09;692700;28;4253;-44
2022/07/05 01:29:58;;;;;;;4.72;3.13;;;;;;;13.17;100.00;101269.75;687403;28;1387;-43
2022/07/05 01:30:19;;;;;;;4.57;3.10;;;;;;;13.15;100.00;101266.22;687953;28;1242;-44
2022/07/05 01:30:42;;;;;;;5.00;3.30;;;;;;;13.14;100.00;101269.72;687375;28;1666;-45
2022/07/05 01:31:03;;;;;;;4.82;3.33;;;;;;;13.09;100.00;101265.38;687564;28;1243;-43
2022/07/05 01:31:23;;;;;;;4.35;2.90;;;;;;;13.10;100.00;101261.03;687718;28;1258;-45
2022/07/05 01:31:44;;;;;;;4.57;3.20;;;;;;;13.07;100.00;101266.25;687884;28;1207;-43
2022/07/05 01:32:05;;;;;;;5.13;3.30;;;;;;;13.06;100.00;101264.53;690002;28;1202;-43
2022/07/05 01:32:25;;;;;;;4.65;3.33;;;;;;;13.02;100.00;101263.66;689895;28;1444;-44
2022/07/05 01:32:46;;;;;;;4.87;3.40;;;;;;;13.05;100.00;101268.91;689239;28;4250;-42
2022/07/05 01:33:08;;;;;;;4.32;3.33;;;;;;;13.06;100.00;101265.41;687756;28;2055;-43
2022/07/05 01:33:30;;;;;;;4.40;3.28;;;;;;;13.07;100.00;101266.25;690691;28;1448;-45
2022/07/05 01:33:50;;;;;;;5.20;3.40;;;;;;;13.05;100.00;101270.66;686886;28;1991;-43
2022/07/05 01:34:11;;;;;;;5.00;3.10;;;;;;;13.06;100.00;101261.91;685245;28;1456;-43
2022/07/05 01:34:32;;;;;;;4.03;3.00;;;;;;;13.03;100.00;101261.91;684974;28;1448;-44
2022/07/05 01:34:54;;;;;;;4.53;3.38;;;;;;;13.01;100.00;101266.31;685182;28;1301;-43
2022/07/05 01:35:20;;;;;;;5.27;3.43;;;;;;;12.97;100.00;101262.81;687128;28;1241;-43
2022/07/05 01:35:40;;;;;;;5.00;3.60;;;;;;;12.92;100.00;101265.47;687083;28;4365;-42
2022/07/05 01:36:01;;;;;;;5.23;3.50;;;;;;;12.91;100.00;101263.72;691393;28;1277;-46
2022/07/05 01:36:22;;;;;;;5.10;3.40;;;;;;;12.88;100.00;101263.75;689307;28;1332;-42
2022/07/05 01:36:42;;;;;;;4.80;3.38;;;;;;;12.90;100.00;101266.34;691110;28;1198;-42
2022/07/05 01:37:03;;;;;;;4.87;3.40;;;;;;;12.89;100.00;101272.47;686286;28;1214;-43
2022/07/05 01:37:24;;;;;;;5.60;3.30;;;;;;;12.86;100.00;101268.13;684671;28;1336;-43
2022/07/05 01:37:44;;;;;;;5.25;3.25;;;;;;;12.87;100.00;101271.63;686625;28;1192;-43
2022/07/05 01:38:05;;;;;;;5.10;3.27;;;;;;;12.85;100.00;101268.13;685623;28;1350;-43
2022/07/05 01:38:26;;;;;;;5.00;3.15;;;;;;;12.83;100.00;101270.75;690260;28;1396;-44
2022/07/05 01:38:46;;;;;;;4.80;3.20;;;;;;;12.86;100.00;101265.53;690287;28;4418;-42
2022/07/05 01:39:08;;;;;;;4.50;3.30;;;;;;;12.88;100.00;101269.00;692810;28;1245;-43
2022/07/05 01:39:28;;;;;;;5.90;3.40;;;;;;;12.90;100.00;101264.63;689822;28;2091;-43
2022/07/05 01:39:49;;;;;;;6.67;3.50;;;;;;;12.89;100.00;101269.84;690467;28;1739;-43